Springport, Michigan
Current Conditions -  °F | °C
As of 2:34 PM on Friday 31 Oct 2014 (Local Time) from KFPK Reporting Station
Light Rain Light Rain  
Wind Chill: 30°   Ceiling: 1700
Heat Index: 37°   Visibility: 7mi
Dew Point: 34°   Wind: 12mph
Humidity: 87%   Direction: 10°N
Pressure: 29.97"   Gusts: 30mph
Location:  42.38°N, 84.7°W
Report Text: KFPK 311834Z AUTO 01010G26KT 7SM -RA SCT013 BKN017 OVC031 03/01 A2997 RMK AO2 T00300011
Loading
Personal Weather Stations






























Interactive Weather Map
Tropical Storm Tracking
New forecast layout! Learn more

10-Day Weather Forecast

Advertisements
Track Severe Weather on mobile